createdAt,value
2022-10-10T00:00:06.525Z,6.40
2022-10-10T00:02:32.947Z,6.24
2022-10-10T00:04:59.307Z,6.20
2022-10-10T00:07:25.735Z,6.24
2022-10-10T00:09:52.174Z,6.22
2022-10-10T00:12:18.539Z,6.15
2022-10-10T00:14:44.906Z,6.13
2022-10-10T00:17:11.343Z,6.13
2022-10-10T00:19:37.756Z,6.09
2022-10-10T00:22:04.133Z,6.18
2022-10-10T00:24:30.457Z,6.00
2022-10-10T00:26:56.816Z,5.98
2022-10-10T00:29:23.245Z,6.08
2022-10-10T00:31:49.587Z,6.08
2022-10-10T00:34:15.985Z,6.17
2022-10-10T00:36:42.342Z,5.82
2022-10-10T00:39:08.677Z,5.89
2022-10-10T00:41:35.071Z,6.03
2022-10-10T00:44:10.621Z,6.06
2022-10-10T00:46:37.404Z,6.03
2022-10-10T00:49:07.019Z,5.89
2022-10-10T00:51:33.752Z,5.80
2022-10-10T00:54:03.976Z,5.79
2022-10-10T00:56:39.175Z,5.80
2022-10-10T00:59:08.546Z,5.88
2022-10-10T01:01:34.940Z,5.79
2022-10-10T01:04:02.595Z,5.68
2022-10-10T01:06:29.523Z,5.72
2022-10-10T01:08:56.978Z,5.85
2022-10-10T01:11:46.219Z,5.85
2022-10-10T01:14:18.456Z,5.73
2022-10-10T01:16:56.172Z,5.67
2022-10-10T01:20:19.352Z,5.68
2022-10-10T01:23:19.421Z,5.60
2022-10-10T01:25:58.821Z,5.69
2022-10-10T01:28:40.103Z,5.58
2022-10-10T01:31:10.321Z,5.53
2022-10-10T01:33:44.987Z,5.53
2022-10-10T01:36:27.007Z,5.64
2022-10-10T01:39:00.110Z,5.67
2022-10-10T01:41:40.383Z,5.68
2022-10-10T01:44:06.799Z,5.74
2022-10-10T01:46:33.206Z,5.78
2022-10-10T01:49:01.018Z,5.79
2022-10-10T01:51:27.278Z,5.83
2022-10-10T01:54:12.883Z,5.71
2022-10-10T01:56:46.956Z,5.68
2022-10-10T01:59:38.229Z,5.56
2022-10-10T02:02:15.796Z,5.55
2022-10-10T02:04:52.881Z,5.53
2022-10-10T02:07:28.319Z,5.63
2022-10-10T02:09:55.678Z,5.58
2022-10-10T02:12:23.335Z,5.60
2022-10-10T02:14:54.090Z,5.65
2022-10-10T02:17:22.800Z,5.73
2022-10-10T02:19:53.927Z,5.70
2022-10-10T02:22:23.541Z,5.65
2022-10-10T02:24:52.239Z,5.58
2022-10-10T02:27:28.016Z,5.58
2022-10-10T02:29:58.786Z,5.56
2022-10-10T02:32:47.610Z,5.50
2022-10-10T02:35:22.907Z,5.54
2022-10-10T02:37:51.568Z,5.56
2022-10-10T02:40:22.337Z,5.52
2022-10-10T02:42:51.117Z,5.51
2022-10-10T02:45:19.767Z,5.60
2022-10-10T02:47:46.244Z,5.71
2022-10-10T02:50:12.754Z,5.60
2022-10-10T02:52:39.308Z,5.56
2022-10-10T02:55:06.203Z,5.54
2022-10-10T02:57:32.634Z,5.51
2022-10-10T02:59:59.067Z,5.28
2022-10-10T03:02:25.473Z,5.34
2022-10-10T03:04:51.812Z,5.45
2022-10-10T03:07:18.152Z,5.29
2022-10-10T03:09:44.617Z,5.31
2022-10-10T03:12:10.963Z,5.20
2022-10-10T03:14:37.332Z,5.15
2022-10-10T03:17:03.709Z,5.21
2022-10-10T03:19:30.065Z,5.31
2022-10-10T03:21:56.432Z,5.23
2022-10-10T03:24:22.804Z,5.29
2022-10-10T03:26:49.188Z,5.29
2022-10-10T03:29:15.568Z,5.18
2022-10-10T03:31:41.963Z,5.24
2022-10-10T03:34:08.385Z,5.21
2022-10-10T03:36:34.831Z,5.35
2022-10-10T03:39:01.176Z,5.34
2022-10-10T03:41:27.703Z,5.32
2022-10-10T03:43:54.118Z,5.47
2022-10-10T03:46:20.906Z,5.37
2022-10-10T03:48:47.592Z,5.16
2022-10-10T03:51:14.018Z,5.12
2022-10-10T03:53:40.520Z,5.17
2022-10-10T03:56:08.003Z,5.13
2022-10-10T03:58:34.699Z,5.08
2022-10-10T04:01:03.556Z,5.15
2022-10-10T04:03:30.933Z,5.20
2022-10-10T04:05:57.485Z,5.13
2022-10-10T04:08:24.650Z,5.02
2022-10-10T04:10:52.903Z,5.20
2022-10-10T04:13:21.052Z,5.13
2022-10-10T04:15:55.343Z,5.02
2022-10-10T04:18:22.558Z,4.94
2022-10-10T04:20:49.022Z,4.97
2022-10-10T04:23:15.385Z,5.02
2022-10-10T04:25:41.913Z,5.06
2022-10-10T04:28:11.695Z,4.93
2022-10-10T04:30:38.156Z,4.88
2022-10-10T04:33:04.519Z,4.78
2022-10-10T04:35:30.849Z,4.86
2022-10-10T04:37:57.208Z,4.86
2022-10-10T04:40:26.609Z,4.87
2022-10-10T04:42:54.477Z,4.91
2022-10-10T04:45:21.029Z,4.77
2022-10-10T04:47:47.381Z,4.81
2022-10-10T04:50:13.789Z,4.86
2022-10-10T04:52:40.169Z,4.84
2022-10-10T04:55:06.709Z,4.83
2022-10-10T04:57:33.155Z,4.86
2022-10-10T04:59:59.651Z,5.03
2022-10-10T05:02:26.012Z,5.05
2022-10-10T05:04:52.364Z,5.09
2022-10-10T05:07:18.790Z,5.09
2022-10-10T05:09:45.124Z,5.10
2022-10-10T05:12:11.521Z,5.20
2022-10-10T05:14:38.037Z,5.19
2022-10-10T05:17:04.566Z,5.61
2022-10-10T05:19:30.926Z,5.46
2022-10-10T05:21:57.377Z,5.31
2022-10-10T05:24:23.983Z,5.26
2022-10-10T05:26:50.469Z,5.16
2022-10-10T05:29:16.864Z,5.19
2022-10-10T05:31:43.261Z,5.22
2022-10-10T05:34:13.747Z,5.17
2022-10-10T05:36:43.412Z,5.18
2022-10-10T05:39:10.039Z,5.10
2022-10-10T05:41:36.684Z,5.19
2022-10-10T05:44:03.116Z,5.07
2022-10-10T05:46:29.603Z,5.18
2022-10-10T05:48:56.677Z,5.20
2022-10-10T05:51:23.371Z,5.13
2022-10-10T05:53:49.796Z,5.25
2022-10-10T05:56:17.132Z,5.10
2022-10-10T05:58:46.509Z,5.16
2022-10-10T06:01:12.904Z,5.36
2022-10-10T06:03:39.287Z,5.39
2022-10-10T06:06:07.077Z,5.31
2022-10-10T06:08:33.768Z,5.47
2022-10-10T06:11:07.897Z,5.55
2022-10-10T06:13:34.837Z,5.59
2022-10-10T06:16:01.362Z,5.52
2022-10-10T06:18:27.771Z,5.52
2022-10-10T06:20:54.241Z,5.55
2022-10-10T06:23:20.715Z,5.62
2022-10-10T06:25:47.271Z,5.69
2022-10-10T06:28:13.665Z,5.65
2022-10-10T06:30:42.750Z,5.74
2022-10-10T06:33:10.040Z,5.95
2022-10-10T06:35:41.700Z,6.02
2022-10-10T06:38:08.772Z,6.16
2022-10-10T06:40:35.345Z,6.21
2022-10-10T06:43:01.848Z,6.46
2022-10-10T06:45:28.202Z,6.29
2022-10-10T06:47:55.466Z,6.41
2022-10-10T06:50:22.148Z,6.47
2022-10-10T06:52:48.923Z,6.60
2022-10-10T06:55:15.677Z,6.61
2022-10-10T06:57:42.006Z,6.69
2022-10-10T07:00:09.319Z,6.88
2022-10-10T07:02:40.565Z,6.94
2022-10-10T07:05:09.431Z,7.04
2022-10-10T07:07:35.771Z,7.01
2022-10-10T07:10:02.153Z,7.02
2022-10-10T07:12:30.363Z,6.94
2022-10-10T07:14:58.296Z,6.91
2022-10-10T07:17:24.773Z,6.98
2022-10-10T07:19:51.180Z,7.06
2022-10-10T07:22:17.915Z,7.07
2022-10-10T07:24:44.267Z,7.29
2022-10-10T07:27:10.682Z,7.44
2022-10-10T07:29:37.242Z,7.54
2022-10-10T07:32:03.894Z,7.58
2022-10-10T07:34:30.243Z,7.73
2022-10-10T07:36:56.658Z,7.83
2022-10-10T07:39:24.411Z,7.91
2022-10-10T07:41:51.917Z,7.99
2022-10-10T07:44:19.511Z,8.06
2022-10-10T07:46:47.192Z,8.11
2022-10-10T07:49:13.571Z,8.55
2022-10-10T07:51:39.919Z,8.64
2022-10-10T07:54:06.349Z,8.60
2022-10-10T07:56:33.266Z,8.77
2022-10-10T07:59:00.801Z,8.91
2022-10-10T08:01:27.262Z,8.75
2022-10-10T08:03:56.417Z,8.87
2022-10-10T08:06:23.277Z,9.10
2022-10-10T08:08:51.954Z,9.05
2022-10-10T08:11:21.133Z,9.14
2022-10-10T08:13:47.960Z,9.20
2022-10-10T08:16:14.751Z,9.26
2022-10-10T08:18:41.210Z,9.19
2022-10-10T08:21:11.084Z,9.33
2022-10-10T08:23:37.601Z,9.26
2022-10-10T08:26:09.599Z,9.42
2022-10-10T08:28:38.051Z,9.55
2022-10-10T08:31:09.532Z,9.66
2022-10-10T08:33:36.739Z,9.77
2022-10-10T08:36:08.662Z,9.76
2022-10-10T08:38:36.088Z,9.80
2022-10-10T08:41:10.147Z,9.95
2022-10-10T08:43:47.249Z,9.97
2022-10-10T08:46:39.582Z,10.27
2022-10-10T08:49:32.189Z,10.34
2022-10-10T08:52:03.626Z,10.28
2022-10-10T08:54:33.610Z,10.48
2022-10-10T08:57:04.315Z,10.63
2022-10-10T08:59:35.488Z,11.05
2022-10-10T09:02:43.555Z,11.06
2022-10-10T09:05:23.068Z,10.95
2022-10-10T09:07:56.569Z,10.83
2022-10-10T09:11:01.505Z,11.10
2022-10-10T09:13:36.379Z,11.22
2022-10-10T09:16:40.097Z,11.74
2022-10-10T09:19:18.178Z,11.50
2022-10-10T09:21:45.871Z,11.38
2022-10-10T09:24:20.172Z,11.47
2022-10-10T09:26:52.501Z,11.84
2022-10-10T09:29:47.132Z,11.82
2022-10-10T09:32:30.440Z,11.83
2022-10-10T09:35:16.588Z,12.18
2022-10-10T09:37:47.704Z,12.12
2022-10-10T09:40:22.315Z,12.44
2022-10-10T09:42:48.662Z,12.44
2022-10-10T09:45:19.467Z,12.70
2022-10-10T09:47:50.569Z,12.83
2022-10-10T09:50:17.869Z,12.95
2022-10-10T09:52:45.813Z,13.34
2022-10-10T09:55:20.256Z,13.27
2022-10-10T09:57:47.967Z,13.31
2022-10-10T10:00:20.479Z,13.87
2022-10-10T10:03:04.185Z,14.07
2022-10-10T10:05:30.651Z,14.24
2022-10-10T10:07:58.287Z,14.21
2022-10-10T10:10:27.111Z,14.65
2022-10-10T10:12:55.151Z,14.74
2022-10-10T10:15:30.578Z,14.65
2022-10-10T10:18:20.692Z,14.78
2022-10-10T10:20:50.322Z,15.09
2022-10-10T10:23:32.179Z,15.02
2022-10-10T10:26:22.816Z,14.99
2022-10-10T10:28:50.472Z,14.86
2022-10-10T10:31:27.894Z,15.07
2022-10-10T10:34:16.360Z,15.40
2022-10-10T10:37:05.015Z,15.10
2022-10-10T10:39:52.017Z,15.46
2022-10-10T10:42:37.102Z,15.71
2022-10-10T10:45:17.355Z,15.33
2022-10-10T10:48:04.151Z,15.68
2022-10-10T10:50:37.566Z,15.65
2022-10-10T10:53:15.826Z,15.62
2022-10-10T10:55:51.191Z,15.82
2022-10-10T11:01:57.685Z,16.45
2022-10-10T11:05:20.452Z,16.42
2022-10-10T11:08:26.107Z,16.42
2022-10-10T11:11:33.611Z,16.83
2022-10-10T11:14:09.640Z,16.74
2022-10-10T11:16:48.420Z,16.72
2022-10-10T11:19:26.453Z,16.99
2022-10-10T11:21:56.007Z,17.15
2022-10-10T11:24:36.590Z,16.88
2022-10-10T11:27:09.608Z,16.79
2022-10-10T11:29:58.926Z,17.12
2022-10-10T11:32:43.027Z,16.97
2022-10-10T11:35:16.753Z,17.25
2022-10-10T11:37:49.196Z,17.45
2022-10-10T11:40:59.997Z,17.67
2022-10-10T11:43:51.410Z,17.62
2022-10-10T11:46:50.549Z,17.75
2022-10-10T11:49:24.990Z,17.88
2022-10-10T11:52:04.904Z,17.82
2022-10-10T11:54:55.286Z,17.86
2022-10-10T11:57:36.035Z,17.95
2022-10-10T12:00:07.223Z,18.18
2022-10-10T12:02:36.816Z,18.31
2022-10-10T12:05:08.003Z,18.48
2022-10-10T12:07:43.497Z,18.50
2022-10-10T12:10:26.620Z,18.40
2022-10-10T12:12:56.155Z,18.73
2022-10-10T12:15:37.233Z,19.00
2022-10-10T12:18:06.751Z,18.87
2022-10-10T12:20:35.820Z,18.64
2022-10-10T12:23:13.964Z,19.01
2022-10-10T12:25:46.122Z,19.18
2022-10-10T12:28:12.447Z,19.18
2022-10-10T12:30:58.585Z,18.91
2022-10-10T12:33:28.317Z,19.05
2022-10-10T12:35:54.769Z,19.23
2022-10-10T12:38:25.720Z,19.41
2022-10-10T12:40:58.017Z,19.24
2022-10-10T12:43:37.022Z,19.30
2022-10-10T12:46:23.925Z,19.23
2022-10-10T12:49:13.924Z,19.28
2022-10-10T12:51:42.342Z,19.24
2022-10-10T12:54:23.778Z,19.42
2022-10-10T12:56:57.817Z,19.62
2022-10-10T12:59:25.118Z,19.51
2022-10-10T13:02:02.375Z,19.57
2022-10-10T13:04:28.964Z,19.59
2022-10-10T13:06:59.822Z,19.65
2022-10-10T13:09:35.164Z,19.74
2022-10-10T13:12:05.134Z,20.01
2022-10-10T13:14:44.551Z,20.01
2022-10-10T13:17:26.260Z,20.02
2022-10-10T13:19:54.069Z,20.26
2022-10-10T13:22:21.348Z,20.23
2022-10-10T13:24:49.082Z,20.36
2022-10-10T13:27:24.957Z,20.39
2022-10-10T13:29:53.143Z,20.53
2022-10-10T13:32:37.532Z,20.41
2022-10-10T13:35:14.791Z,20.34
2022-10-10T13:37:42.764Z,20.29
2022-10-10T13:40:19.578Z,20.60
2022-10-10T13:42:48.144Z,20.52
2022-10-10T13:45:29.196Z,20.67
2022-10-10T13:48:11.683Z,20.50
2022-10-10T13:50:44.199Z,20.51
2022-10-10T13:53:26.598Z,20.53
2022-10-10T13:55:59.415Z,20.60
2022-10-10T13:58:27.646Z,20.76
2022-10-10T14:00:56.815Z,20.87
2022-10-10T14:03:23.577Z,20.91
2022-10-10T14:05:50.161Z,20.97
2022-10-10T14:08:19.383Z,21.12
2022-10-10T14:11:07.668Z,21.21
2022-10-10T14:13:38.690Z,21.33
2022-10-10T14:16:17.694Z,21.45
2022-10-10T14:18:44.903Z,21.21
2022-10-10T14:21:11.664Z,21.40
2022-10-10T14:23:38.929Z,21.19
2022-10-10T14:26:07.890Z,21.20
2022-10-10T14:28:37.392Z,21.12
2022-10-10T14:31:04.452Z,21.28
2022-10-10T14:33:31.452Z,21.29
2022-10-10T14:35:59.551Z,21.23
2022-10-10T14:38:26.803Z,21.26
2022-10-10T14:40:54.489Z,21.27
2022-10-10T14:43:22.506Z,21.31
2022-10-10T14:45:53.452Z,21.27
2022-10-10T14:48:20.197Z,21.23
2022-10-10T14:50:49.166Z,21.32
2022-10-10T14:53:16.323Z,21.13
2022-10-10T14:55:45.949Z,21.07
2022-10-10T14:58:18.106Z,21.09
2022-10-10T15:00:44.958Z,21.10
2022-10-10T15:03:12.204Z,20.95
2022-10-10T15:05:39.280Z,20.98
2022-10-10T15:08:06.295Z,21.10
2022-10-10T15:10:34.513Z,21.12
2022-10-10T15:13:02.255Z,21.20
2022-10-10T15:15:28.727Z,21.18
2022-10-10T15:17:57.093Z,21.38
2022-10-10T15:20:30.394Z,21.26
2022-10-10T15:23:02.783Z,21.16
2022-10-10T15:25:33.637Z,21.16
2022-10-10T15:28:04.650Z,20.98
2022-10-10T15:30:31.149Z,20.92
2022-10-10T15:32:57.494Z,20.81
2022-10-10T15:35:25.658Z,20.64
2022-10-10T15:37:52.555Z,20.68
2022-10-10T15:40:22.455Z,20.50
2022-10-10T15:42:49.803Z,20.50
2022-10-10T15:45:37.018Z,20.41
2022-10-10T15:48:03.543Z,20.33
2022-10-10T15:50:31.379Z,20.29
2022-10-10T15:52:57.746Z,20.29
2022-10-10T15:55:24.153Z,20.18
2022-10-10T15:57:50.482Z,20.18
2022-10-10T16:00:21.087Z,20.03
2022-10-10T16:02:47.409Z,19.99
2022-10-10T16:05:13.793Z,19.87
2022-10-10T16:07:47.631Z,19.85
2022-10-10T16:10:15.796Z,19.74
2022-10-10T16:12:42.182Z,19.68
2022-10-10T16:15:09.393Z,19.56
2022-10-10T16:17:35.758Z,19.40
2022-10-10T16:20:02.475Z,19.18
2022-10-10T16:22:28.928Z,19.01
2022-10-10T16:27:42.684Z,18.99
2022-10-10T16:30:09.974Z,18.96
2022-10-10T16:32:41.719Z,18.92
2022-10-10T16:35:08.803Z,18.84
2022-10-10T16:37:35.163Z,18.64
2022-10-10T16:40:01.578Z,18.55
2022-10-10T16:42:27.968Z,18.54
2022-10-10T16:44:54.313Z,18.56
2022-10-10T16:47:20.724Z,18.49
2022-10-10T16:49:47.185Z,18.44
2022-10-10T16:52:13.541Z,18.43
2022-10-10T16:54:39.886Z,18.38
2022-10-10T16:57:06.259Z,18.45
2022-10-10T16:59:34.759Z,18.40
2022-10-10T17:02:01.244Z,18.27
2022-10-10T17:04:27.680Z,18.36
2022-10-10T17:06:54.096Z,18.24
2022-10-10T17:09:20.542Z,18.17
2022-10-10T17:11:51.061Z,18.08
2022-10-10T17:14:17.839Z,17.95
2022-10-10T17:17:10.401Z,18.10
2022-10-10T17:19:31.228Z,18.07
2022-10-10T17:21:57.569Z,17.77
2022-10-10T17:24:23.908Z,17.67
2022-10-10T17:26:50.298Z,17.48
2022-10-10T17:29:16.868Z,17.36
2022-10-10T17:31:43.299Z,17.38
2022-10-10T17:34:09.657Z,17.30
2022-10-10T17:36:36.010Z,17.25
2022-10-10T17:39:03.608Z,17.16
2022-10-10T17:41:30.223Z,16.87
2022-10-10T17:43:56.722Z,16.79
2022-10-10T17:46:41.817Z,16.78
2022-10-10T17:49:10.379Z,17.00
2022-10-10T17:51:39.097Z,16.94
2022-10-10T17:54:06.486Z,16.94
2022-10-10T17:56:33.407Z,16.90
2022-10-10T17:59:01.432Z,16.97
2022-10-10T18:01:30.346Z,17.21
2022-10-10T18:03:56.937Z,17.06
2022-10-10T18:06:23.808Z,17.07
2022-10-10T18:08:51.863Z,17.14
2022-10-10T18:11:24.597Z,16.91
2022-10-10T18:13:51.614Z,16.78
2022-10-10T18:16:22.743Z,16.71
2022-10-10T18:18:51.746Z,16.85
2022-10-10T18:21:20.724Z,16.61
2022-10-10T18:23:48.131Z,16.47
2022-10-10T18:26:17.322Z,16.40
2022-10-10T18:28:44.138Z,16.29
2022-10-10T18:31:14.240Z,16.38
2022-10-10T18:33:41.612Z,16.30
2022-10-10T18:36:09.508Z,16.58
2022-10-10T18:38:35.986Z,16.46
2022-10-10T18:41:14.529Z,16.43
2022-10-10T18:43:43.198Z,16.40
2022-10-10T18:46:12.448Z,16.49
2022-10-10T18:48:39.472Z,16.54
2022-10-10T18:51:08.546Z,16.82
2022-10-10T18:53:37.079Z,16.50
2022-10-10T18:56:04.331Z,16.43
2022-10-10T18:58:31.547Z,16.27
2022-10-10T19:01:00.190Z,16.41
2022-10-10T19:03:27.660Z,16.11
2022-10-10T19:05:54.315Z,15.94
2022-10-10T19:08:21.040Z,16.10
2022-10-10T19:10:49.103Z,16.13
2022-10-10T19:13:16.671Z,16.06
2022-10-10T19:15:43.283Z,16.24
2022-10-10T19:18:09.799Z,16.19
2022-10-10T19:20:36.740Z,16.16
2022-10-10T19:23:03.234Z,16.15
2022-10-10T19:25:29.874Z,16.23
2022-10-10T19:27:56.978Z,16.34
2022-10-10T19:30:23.826Z,16.21
2022-10-10T19:32:50.417Z,16.12
2022-10-10T19:35:16.885Z,16.34
2022-10-10T19:37:43.381Z,16.14
2022-10-10T19:40:10.225Z,16.24
2022-10-10T19:42:36.865Z,16.08
2022-10-10T19:45:03.506Z,16.08
2022-10-10T19:47:29.855Z,16.12
2022-10-10T19:49:56.193Z,16.32
2022-10-10T19:52:22.948Z,15.99
2022-10-10T19:54:49.618Z,16.11
2022-10-10T19:57:16.015Z,16.22
2022-10-10T19:59:42.788Z,16.09
2022-10-10T20:02:10.822Z,16.23
2022-10-10T20:04:37.171Z,16.20
2022-10-10T20:07:03.568Z,16.17
2022-10-10T20:09:30.121Z,16.18
2022-10-10T20:11:56.460Z,16.13
2022-10-10T20:14:22.829Z,16.21
2022-10-10T20:16:49.301Z,16.16
2022-10-10T20:19:15.703Z,16.02
2022-10-10T20:21:42.055Z,15.92
2022-10-10T20:24:09.802Z,15.79
2022-10-10T20:26:36.492Z,16.12
2022-10-10T20:29:04.208Z,15.93
2022-10-10T20:31:33.284Z,15.86
2022-10-10T20:34:01.543Z,15.88
2022-10-10T20:36:30.203Z,15.90
2022-10-10T20:39:00.472Z,15.97
2022-10-10T20:41:29.381Z,15.93
2022-10-10T20:44:00.820Z,15.88
2022-10-10T20:46:30.614Z,15.79
2022-10-10T20:48:59.194Z,15.71
2022-10-10T20:51:27.431Z,15.73
2022-10-10T20:54:00.299Z,15.69
2022-10-10T20:56:28.411Z,15.66
2022-10-10T20:58:55.172Z,15.62
2022-10-10T21:01:24.776Z,15.68
2022-10-10T21:03:51.638Z,15.73
2022-10-10T21:06:20.515Z,15.72
2022-10-10T21:08:47.083Z,15.72
2022-10-10T21:11:15.533Z,15.73
2022-10-10T21:13:44.536Z,15.61
2022-10-10T21:16:16.845Z,15.51
2022-10-10T21:18:56.678Z,15.52
2022-10-10T21:21:25.067Z,15.40
2022-10-10T21:23:55.833Z,15.36
2022-10-10T21:26:23.937Z,15.29
2022-10-10T21:28:50.844Z,15.29
2022-10-10T21:31:26.950Z,15.23
2022-10-10T21:33:54.396Z,15.19
2022-10-10T21:36:21.658Z,15.03
2022-10-10T21:38:48.307Z,15.06
2022-10-10T21:41:19.338Z,14.99
2022-10-10T21:43:48.816Z,15.19
2022-10-10T21:46:17.804Z,15.07
2022-10-10T21:48:44.989Z,15.20
2022-10-10T21:51:11.753Z,15.00
2022-10-10T21:53:38.201Z,14.92
2022-10-10T21:56:08.049Z,14.91
2022-10-10T21:58:37.149Z,14.71
2022-10-10T22:01:12.052Z,14.63
2022-10-10T22:03:38.686Z,14.64
2022-10-10T22:06:08.766Z,14.61
2022-10-10T22:08:36.160Z,14.52
2022-10-10T22:11:04.747Z,14.65
2022-10-10T22:13:31.810Z,14.77
2022-10-10T22:15:58.331Z,14.99
2022-10-10T22:18:24.861Z,14.87
2022-10-10T22:20:51.601Z,14.87
2022-10-10T22:23:18.480Z,14.75
2022-10-10T22:25:46.969Z,14.62
2022-10-10T22:28:14.099Z,14.50
2022-10-10T22:30:40.899Z,14.41
2022-10-10T22:33:07.402Z,14.34
2022-10-10T22:35:34.101Z,14.19
2022-10-10T22:38:01.553Z,13.93
2022-10-10T22:40:28.666Z,14.00
2022-10-10T22:42:55.144Z,13.88
2022-10-10T22:45:22.040Z,13.66
2022-10-10T22:47:48.469Z,13.73
2022-10-10T22:50:14.937Z,13.63
2022-10-10T22:52:41.801Z,13.39
2022-10-10T22:55:09.131Z,13.46
2022-10-10T22:57:35.755Z,13.49
2022-10-10T23:00:03.091Z,13.71
2022-10-10T23:02:29.455Z,13.54
2022-10-10T23:04:55.807Z,13.40
2022-10-10T23:07:22.229Z,13.44
2022-10-10T23:09:48.583Z,13.36
2022-10-10T23:12:14.996Z,13.36
2022-10-10T23:14:41.498Z,13.14
2022-10-10T23:17:07.905Z,13.11
2022-10-10T23:19:34.268Z,13.16
2022-10-10T23:22:00.692Z,13.29
2022-10-10T23:24:27.813Z,13.36
2022-10-10T23:26:54.153Z,13.37
2022-10-10T23:29:20.477Z,13.40
2022-10-10T23:31:46.948Z,13.34
2022-10-10T23:34:13.317Z,13.26
2022-10-10T23:36:39.701Z,13.33
2022-10-10T23:39:09.781Z,13.31
2022-10-10T23:41:36.503Z,13.40
2022-10-10T23:44:02.923Z,13.37
2022-10-10T23:46:29.308Z,13.83
2022-10-10T23:48:55.713Z,14.20
2022-10-10T23:51:22.144Z,14.32
2022-10-10T23:53:48.501Z,14.09
2022-10-10T23:56:14.877Z,14.18
2022-10-10T23:58:41.288Z,14.36
